sensor_id;sensor_type;location;lat;lon;timestamp;P1;durP1;ratioP1;P2;durP2;ratioP2
6037;SDS011;3047;42.600;23.470;2023-01-08T00:00:55;1.60;;;1.07;;
6037;SDS011;3047;42.600;23.470;2023-01-08T00:03:23;1.40;;;1.40;;
6037;SDS011;3047;42.600;23.470;2023-01-08T00:05:50;1.33;;;1.33;;
6037;SDS011;3047;42.600;23.470;2023-01-08T00:08:17;1.40;;;1.30;;
6037;SDS011;3047;42.600;23.470;2023-01-08T00:10:43;0.83;;;0.83;;
6037;SDS011;3047;42.600;23.470;2023-01-08T00:13:10;0.57;;;0.57;;
6037;SDS011;3047;42.600;23.470;2023-01-08T00:15:38;1.17;;;1.17;;
6037;SDS011;3047;42.600;23.470;2023-01-08T00:18:05;0.90;;;0.90;;
6037;SDS011;3047;42.600;23.470;2023-01-08T00:20:35;0.83;;;0.83;;
6037;SDS011;3047;42.600;23.470;2023-01-08T00:23:01;0.90;;;0.90;;
6037;SDS011;3047;42.600;23.470;2023-01-08T00:25:28;0.87;;;0.87;;
6037;SDS011;3047;42.600;23.470;2023-01-08T00:27:55;0.80;;;0.80;;
6037;SDS011;3047;42.600;23.470;2023-01-08T00:30:21;0.87;;;0.87;;
6037;SDS011;3047;42.600;23.470;2023-01-08T00:32:49;1.00;;;1.00;;
6037;SDS011;3047;42.600;23.470;2023-01-08T00:35:16;1.13;;;1.13;;
6037;SDS011;3047;42.600;23.470;2023-01-08T00:37:43;1.57;;;1.57;;
6037;SDS011;3047;42.600;23.470;2023-01-08T00:40:10;0.80;;;0.80;;
6037;SDS011;3047;42.600;23.470;2023-01-08T00:42:37;0.80;;;0.80;;
6037;SDS011;3047;42.600;23.470;2023-01-08T00:45:04;1.03;;;1.03;;
6037;SDS011;3047;42.600;23.470;2023-01-08T00:47:32;0.83;;;0.83;;
6037;SDS011;3047;42.600;23.470;2023-01-08T00:50:00;0.63;;;0.63;;
6037;SDS011;3047;42.600;23.470;2023-01-08T00:52:27;0.70;;;0.70;;
6037;SDS011;3047;42.600;23.470;2023-01-08T00:54:53;1.33;;;1.33;;
6037;SDS011;3047;42.600;23.470;2023-01-08T00:57:20;1.13;;;1.13;;
6037;SDS011;3047;42.600;23.470;2023-01-08T00:59:47;0.90;;;0.90;;
6037;SDS011;3047;42.600;23.470;2023-01-08T01:02:13;1.00;;;1.00;;
6037;SDS011;3047;42.600;23.470;2023-01-08T01:04:40;0.73;;;0.73;;
6037;SDS011;3047;42.600;23.470;2023-01-08T01:07:08;0.63;;;0.63;;
6037;SDS011;3047;42.600;23.470;2023-01-08T01:09:35;1.87;;;1.00;;
6037;SDS011;3047;42.600;23.470;2023-01-08T01:12:04;1.20;;;1.17;;
6037;SDS011;3047;42.600;23.470;2023-01-08T01:14:31;0.40;;;0.40;;
6037;SDS011;3047;42.600;23.470;2023-01-08T01:16:58;0.90;;;0.90;;
6037;SDS011;3047;42.600;23.470;2023-01-08T01:19:25;5.63;;;1.43;;
6037;SDS011;3047;42.600;23.470;2023-01-08T01:21:51;0.57;;;0.57;;
6037;SDS011;3047;42.600;23.470;2023-01-08T01:24:19;1.73;;;1.73;;
6037;SDS011;3047;42.600;23.470;2023-01-08T01:26:49;0.67;;;0.67;;
6037;SDS011;3047;42.600;23.470;2023-01-08T01:29:15;0.60;;;0.60;;
6037;SDS011;3047;42.600;23.470;2023-01-08T01:31:42;0.83;;;0.83;;
6037;SDS011;3047;42.600;23.470;2023-01-08T01:34:09;0.60;;;0.60;;
6037;SDS011;3047;42.600;23.470;2023-01-08T01:36:36;1.17;;;1.17;;
6037;SDS011;3047;42.600;23.470;2023-01-08T01:39:03;0.60;;;0.60;;
6037;SDS011;3047;42.600;23.470;2023-01-08T01:41:32;1.00;;;1.00;;
6037;SDS011;3047;42.600;23.470;2023-01-08T01:47:01;0.90;;;0.90;;
6037;SDS011;3047;42.600;23.470;2023-01-08T01:49:31;0.90;;;0.90;;
6037;SDS011;3047;42.600;23.470;2023-01-08T01:51:59;3.40;;;1.73;;
6037;SDS011;3047;42.600;23.470;2023-01-08T01:54:28;0.70;;;0.70;;
6037;SDS011;3047;42.600;23.470;2023-01-08T01:56:58;0.87;;;0.87;;
6037;SDS011;3047;42.600;23.470;2023-01-08T01:59:25;0.70;;;0.70;;
6037;SDS011;3047;42.600;23.470;2023-01-08T02:01:52;1.00;;;1.00;;
6037;SDS011;3047;42.600;23.470;2023-01-08T02:04:20;1.83;;;1.67;;
6037;SDS011;3047;42.600;23.470;2023-01-08T02:06:48;3.67;;;1.10;;
6037;SDS011;3047;42.600;23.470;2023-01-08T02:09:27;0.90;;;0.90;;
6037;SDS011;3047;42.600;23.470;2023-01-08T02:12:04;0.87;;;0.87;;
6037;SDS011;3047;42.600;23.470;2023-01-08T02:14:42;0.50;;;0.50;;
6037;SDS011;3047;42.600;23.470;2023-01-08T02:17:19;0.80;;;0.80;;
6037;SDS011;3047;42.600;23.470;2023-01-08T02:19:54;0.63;;;0.63;;
6037;SDS011;3047;42.600;23.470;2023-01-08T02:22:28;0.70;;;0.70;;
6037;SDS011;3047;42.600;23.470;2023-01-08T02:25:06;0.87;;;0.87;;
6037;SDS011;3047;42.600;23.470;2023-01-08T02:27:39;0.77;;;0.77;;
6037;SDS011;3047;42.600;23.470;2023-01-08T02:30:10;1.07;;;1.07;;
6037;SDS011;3047;42.600;23.470;2023-01-08T02:32:37;0.87;;;0.87;;
6037;SDS011;3047;42.600;23.470;2023-01-08T02:35:06;1.17;;;1.17;;
6037;SDS011;3047;42.600;23.470;2023-01-08T02:37:34;0.63;;;0.63;;
6037;SDS011;3047;42.600;23.470;2023-01-08T02:40:03;1.03;;;1.03;;
6037;SDS011;3047;42.600;23.470;2023-01-08T02:42:38;0.97;;;0.97;;
6037;SDS011;3047;42.600;23.470;2023-01-08T02:45:15;1.40;;;1.40;;
6037;SDS011;3047;42.600;23.470;2023-01-08T02:48:01;1.13;;;1.13;;
6037;SDS011;3047;42.600;23.470;2023-01-08T02:50:39;0.63;;;0.63;;
6037;SDS011;3047;42.600;23.470;2023-01-08T02:53:11;1.00;;;1.00;;
6037;SDS011;3047;42.600;23.470;2023-01-08T02:55:41;0.97;;;0.97;;
6037;SDS011;3047;42.600;23.470;2023-01-08T02:58:14;0.90;;;0.90;;
6037;SDS011;3047;42.600;23.470;2023-01-08T03:00:42;1.53;;;1.53;;
6037;SDS011;3047;42.600;23.470;2023-01-08T03:03:13;1.40;;;1.40;;
6037;SDS011;3047;42.600;23.470;2023-01-08T03:05:43;1.27;;;1.13;;
6037;SDS011;3047;42.600;23.470;2023-01-08T03:08:12;1.40;;;1.40;;
6037;SDS011;3047;42.600;23.470;2023-01-08T03:10:40;0.70;;;0.70;;
6037;SDS011;3047;42.600;23.470;2023-01-08T03:13:11;0.80;;;0.80;;
6037;SDS011;3047;42.600;23.470;2023-01-08T03:15:45;1.00;;;1.00;;
6037;SDS011;3047;42.600;23.470;2023-01-08T03:18:14;0.67;;;0.67;;
6037;SDS011;3047;42.600;23.470;2023-01-08T03:20:46;1.87;;;1.77;;
6037;SDS011;3047;42.600;23.470;2023-01-08T03:23:14;2.10;;;1.83;;
6037;SDS011;3047;42.600;23.470;2023-01-08T03:25:45;0.87;;;0.87;;
6037;SDS011;3047;42.600;23.470;2023-01-08T03:28:16;0.87;;;0.87;;
6037;SDS011;3047;42.600;23.470;2023-01-08T03:30:47;1.50;;;1.50;;
6037;SDS011;3047;42.600;23.470;2023-01-08T03:33:15;0.70;;;0.70;;
6037;SDS011;3047;42.600;23.470;2023-01-08T03:35:45;1.50;;;1.50;;
6037;SDS011;3047;42.600;23.470;2023-01-08T03:38:16;0.73;;;0.73;;
6037;SDS011;3047;42.600;23.470;2023-01-08T03:40:48;1.00;;;1.00;;
6037;SDS011;3047;42.600;23.470;2023-01-08T03:43:21;1.23;;;1.23;;
6037;SDS011;3047;42.600;23.470;2023-01-08T03:45:48;0.83;;;0.83;;
6037;SDS011;3047;42.600;23.470;2023-01-08T03:48:19;0.93;;;0.93;;
6037;SDS011;3047;42.600;23.470;2023-01-08T03:50:47;1.00;;;1.00;;
6037;SDS011;3047;42.600;23.470;2023-01-08T03:53:14;0.80;;;0.80;;
6037;SDS011;3047;42.600;23.470;2023-01-08T03:55:40;0.87;;;0.87;;
6037;SDS011;3047;42.600;23.470;2023-01-08T03:58:07;0.87;;;0.87;;
6037;SDS011;3047;42.600;23.470;2023-01-08T04:00:35;1.80;;;1.00;;
6037;SDS011;3047;42.600;23.470;2023-01-08T04:03:02;1.10;;;1.10;;
6037;SDS011;3047;42.600;23.470;2023-01-08T04:05:29;1.10;;;1.10;;
6037;SDS011;3047;42.600;23.470;2023-01-08T04:07:56;1.07;;;1.07;;
6037;SDS011;3047;42.600;23.470;2023-01-08T04:10:23;0.80;;;0.80;;
6037;SDS011;3047;42.600;23.470;2023-01-08T04:12:50;0.63;;;0.63;;
6037;SDS011;3047;42.600;23.470;2023-01-08T04:15:17;1.20;;;1.20;;
6037;SDS011;3047;42.600;23.470;2023-01-08T04:17:45;0.67;;;0.67;;
6037;SDS011;3047;42.600;23.470;2023-01-08T04:20:12;0.87;;;0.87;;
6037;SDS011;3047;42.600;23.470;2023-01-08T04:22:39;0.87;;;0.87;;
6037;SDS011;3047;42.600;23.470;2023-01-08T04:25:06;0.70;;;0.70;;
6037;SDS011;3047;42.600;23.470;2023-01-08T04:27:33;0.80;;;0.80;;
6037;SDS011;3047;42.600;23.470;2023-01-08T04:30:00;4.13;;;1.53;;
6037;SDS011;3047;42.600;23.470;2023-01-08T04:32:26;1.47;;;1.47;;
6037;SDS011;3047;42.600;23.470;2023-01-08T04:34:55;0.80;;;0.80;;
6037;SDS011;3047;42.600;23.470;2023-01-08T04:37:21;1.10;;;1.10;;
6037;SDS011;3047;42.600;23.470;2023-01-08T04:39:48;0.77;;;0.77;;
6037;SDS011;3047;42.600;23.470;2023-01-08T04:42:15;1.23;;;1.17;;
6037;SDS011;3047;42.600;23.470;2023-01-08T04:44:41;0.77;;;0.77;;
6037;SDS011;3047;42.600;23.470;2023-01-08T04:47:08;1.33;;;1.23;;
6037;SDS011;3047;42.600;23.470;2023-01-08T04:49:35;1.03;;;1.03;;
6037;SDS011;3047;42.600;23.470;2023-01-08T04:52:03;0.93;;;0.93;;
6037;SDS011;3047;42.600;23.470;2023-01-08T04:54:30;1.00;;;1.00;;
6037;SDS011;3047;42.600;23.470;2023-01-08T04:56:57;0.80;;;0.80;;
6037;SDS011;3047;42.600;23.470;2023-01-08T04:59:24;0.77;;;0.77;;
6037;SDS011;3047;42.600;23.470;2023-01-08T05:01:50;1.07;;;1.00;;
6037;SDS011;3047;42.600;23.470;2023-01-08T05:04:17;1.13;;;1.13;;
6037;SDS011;3047;42.600;23.470;2023-01-08T05:06:44;0.87;;;0.87;;
6037;SDS011;3047;42.600;23.470;2023-01-08T05:09:12;0.97;;;0.97;;
6037;SDS011;3047;42.600;23.470;2023-01-08T05:11:38;0.83;;;0.83;;
6037;SDS011;3047;42.600;23.470;2023-01-08T05:14:07;1.03;;;1.03;;
6037;SDS011;3047;42.600;23.470;2023-01-08T05:16:34;0.77;;;0.77;;
6037;SDS011;3047;42.600;23.470;2023-01-08T05:19:00;0.80;;;0.80;;
6037;SDS011;3047;42.600;23.470;2023-01-08T05:21:27;2.27;;;1.90;;
6037;SDS011;3047;42.600;23.470;2023-01-08T05:23:54;0.70;;;0.70;;
6037;SDS011;3047;42.600;23.470;2023-01-08T05:26:22;0.90;;;0.90;;
6037;SDS011;3047;42.600;23.470;2023-01-08T05:28:48;0.67;;;0.67;;
6037;SDS011;3047;42.600;23.470;2023-01-08T05:31:15;0.77;;;0.77;;
6037;SDS011;3047;42.600;23.470;2023-01-08T05:33:42;0.83;;;0.83;;
6037;SDS011;3047;42.600;23.470;2023-01-08T05:36:09;1.83;;;1.73;;
6037;SDS011;3047;42.600;23.470;2023-01-08T05:38:37;0.70;;;0.70;;
6037;SDS011;3047;42.600;23.470;2023-01-08T05:41:04;0.80;;;0.80;;
6037;SDS011;3047;42.600;23.470;2023-01-08T05:43:33;1.20;;;1.20;;
6037;SDS011;3047;42.600;23.470;2023-01-08T05:46:01;0.87;;;0.87;;
6037;SDS011;3047;42.600;23.470;2023-01-08T05:48:29;0.80;;;0.80;;
6037;SDS011;3047;42.600;23.470;2023-01-08T05:50:58;1.00;;;1.00;;
6037;SDS011;3047;42.600;23.470;2023-01-08T05:53:24;0.57;;;0.57;;
6037;SDS011;3047;42.600;23.470;2023-01-08T05:55:51;1.93;;;1.83;;
6037;SDS011;3047;42.600;23.470;2023-01-08T05:58:23;1.47;;;1.47;;
6037;SDS011;3047;42.600;23.470;2023-01-08T06:00:52;1.03;;;1.03;;
6037;SDS011;3047;42.600;23.470;2023-01-08T06:03:19;0.80;;;0.80;;
6037;SDS011;3047;42.600;23.470;2023-01-08T06:05:46;1.40;;;1.40;;
6037;SDS011;3047;42.600;23.470;2023-01-08T06:08:13;0.80;;;0.80;;
6037;SDS011;3047;42.600;23.470;2023-01-08T06:10:39;1.03;;;1.03;;
6037;SDS011;3047;42.600;23.470;2023-01-08T06:13:06;0.60;;;0.60;;
6037;SDS011;3047;42.600;23.470;2023-01-08T06:15:33;0.63;;;0.63;;
6037;SDS011;3047;42.600;23.470;2023-01-08T06:18:02;0.97;;;0.97;;
6037;SDS011;3047;42.600;23.470;2023-01-08T06:20:29;0.70;;;0.70;;
6037;SDS011;3047;42.600;23.470;2023-01-08T06:22:56;1.30;;;1.30;;
6037;SDS011;3047;42.600;23.470;2023-01-08T06:25:22;2.43;;;2.23;;
6037;SDS011;3047;42.600;23.470;2023-01-08T06:27:50;1.17;;;1.10;;
6037;SDS011;3047;42.600;23.470;2023-01-08T06:30:16;0.90;;;0.90;;
6037;SDS011;3047;42.600;23.470;2023-01-08T06:32:43;1.17;;;1.17;;
6037;SDS011;3047;42.600;23.470;2023-01-08T06:35:11;0.70;;;0.70;;
6037;SDS011;3047;42.600;23.470;2023-01-08T06:37:38;1.00;;;1.00;;
6037;SDS011;3047;42.600;23.470;2023-01-08T06:40:05;1.97;;;1.70;;
6037;SDS011;3047;42.600;23.470;2023-01-08T06:42:32;1.83;;;1.67;;
6037;SDS011;3047;42.600;23.470;2023-01-08T06:44:59;1.10;;;1.10;;
6037;SDS011;3047;42.600;23.470;2023-01-08T06:47:26;0.80;;;0.80;;
6037;SDS011;3047;42.600;23.470;2023-01-08T06:49:52;0.97;;;0.97;;
6037;SDS011;3047;42.600;23.470;2023-01-08T06:52:20;0.90;;;0.90;;
6037;SDS011;3047;42.600;23.470;2023-01-08T06:54:47;1.60;;;1.60;;
6037;SDS011;3047;42.600;23.470;2023-01-08T06:57:14;2.60;;;1.87;;
6037;SDS011;3047;42.600;23.470;2023-01-08T06:59:40;2.30;;;1.77;;
6037;SDS011;3047;42.600;23.470;2023-01-08T07:02:08;4.10;;;1.73;;
6037;SDS011;3047;42.600;23.470;2023-01-08T07:04:38;0.90;;;0.90;;
6037;SDS011;3047;42.600;23.470;2023-01-08T07:07:05;0.90;;;0.90;;
6037;SDS011;3047;42.600;23.470;2023-01-08T07:12:01;2.60;;;2.40;;
6037;SDS011;3047;42.600;23.470;2023-01-08T07:14:28;3.20;;;2.07;;
6037;SDS011;3047;42.600;23.470;2023-01-08T07:16:55;1.00;;;1.00;;
6037;SDS011;3047;42.600;23.470;2023-01-08T07:19:21;1.13;;;1.13;;
6037;SDS011;3047;42.600;23.470;2023-01-08T07:21:48;1.13;;;1.13;;
6037;SDS011;3047;42.600;23.470;2023-01-08T07:24:15;0.80;;;0.80;;
6037;SDS011;3047;42.600;23.470;2023-01-08T07:26:43;2.10;;;1.50;;
6037;SDS011;3047;42.600;23.470;2023-01-08T07:29:10;1.00;;;1.00;;
6037;SDS011;3047;42.600;23.470;2023-01-08T07:31:37;1.87;;;1.87;;
6037;SDS011;3047;42.600;23.470;2023-01-08T07:34:03;1.43;;;1.37;;
6037;SDS011;3047;42.600;23.470;2023-01-08T07:36:30;1.30;;;1.30;;
6037;SDS011;3047;42.600;23.470;2023-01-08T07:38:57;1.43;;;1.43;;
6037;SDS011;3047;42.600;23.470;2023-01-08T07:41:23;1.40;;;0.90;;
6037;SDS011;3047;42.600;23.470;2023-01-08T07:43:52;1.23;;;1.23;;
6037;SDS011;3047;42.600;23.470;2023-01-08T07:46:19;1.00;;;1.00;;
6037;SDS011;3047;42.600;23.470;2023-01-08T07:48:47;0.93;;;0.93;;
6037;SDS011;3047;42.600;23.470;2023-01-08T07:51:14;1.43;;;1.43;;
6037;SDS011;3047;42.600;23.470;2023-01-08T07:53:40;1.23;;;1.23;;
6037;SDS011;3047;42.600;23.470;2023-01-08T07:56:07;2.93;;;2.10;;
6037;SDS011;3047;42.600;23.470;2023-01-08T07:58:35;0.93;;;0.93;;
6037;SDS011;3047;42.600;23.470;2023-01-08T08:01:06;2.73;;;1.27;;
6037;SDS011;3047;42.600;23.470;2023-01-08T08:03:36;1.10;;;1.10;;
6037;SDS011;3047;42.600;23.470;2023-01-08T08:06:03;0.97;;;0.97;;
6037;SDS011;3047;42.600;23.470;2023-01-08T08:08:30;0.57;;;0.57;;
6037;SDS011;3047;42.600;23.470;2023-01-08T08:10:57;1.30;;;1.30;;
6037;SDS011;3047;42.600;23.470;2023-01-08T08:13:24;1.40;;;1.40;;
6037;SDS011;3047;42.600;23.470;2023-01-08T08:15:51;1.83;;;1.73;;
6037;SDS011;3047;42.600;23.470;2023-01-08T08:18:19;1.63;;;1.63;;
6037;SDS011;3047;42.600;23.470;2023-01-08T08:20:46;4.50;;;1.43;;
6037;SDS011;3047;42.600;23.470;2023-01-08T08:23:16;1.30;;;1.30;;
6037;SDS011;3047;42.600;23.470;2023-01-08T08:25:42;1.40;;;1.40;;
6037;SDS011;3047;42.600;23.470;2023-01-08T08:28:10;2.30;;;2.23;;
6037;SDS011;3047;42.600;23.470;2023-01-08T08:30:37;1.07;;;1.07;;
6037;SDS011;3047;42.600;23.470;2023-01-08T08:33:05;1.03;;;1.03;;
6037;SDS011;3047;42.600;23.470;2023-01-08T08:35:34;1.33;;;1.33;;
6037;SDS011;3047;42.600;23.470;2023-01-08T08:38:01;1.37;;;1.30;;
6037;SDS011;3047;42.600;23.470;2023-01-08T08:40:28;0.80;;;0.80;;
6037;SDS011;3047;42.600;23.470;2023-01-08T08:42:55;3.30;;;3.07;;
6037;SDS011;3047;42.600;23.470;2023-01-08T08:45:23;4.73;;;1.90;;
6037;SDS011;3047;42.600;23.470;2023-01-08T08:47:50;1.73;;;1.63;;
6037;SDS011;3047;42.600;23.470;2023-01-08T08:50:17;2.90;;;2.70;;
6037;SDS011;3047;42.600;23.470;2023-01-08T08:52:46;2.13;;;2.00;;
6037;SDS011;3047;42.600;23.470;2023-01-08T08:55:13;2.73;;;2.63;;
6037;SDS011;3047;42.600;23.470;2023-01-08T08:57:41;1.40;;;1.40;;
6037;SDS011;3047;42.600;23.470;2023-01-08T09:00:08;1.37;;;1.37;;
6037;SDS011;3047;42.600;23.470;2023-01-08T09:02:36;1.63;;;1.43;;
6037;SDS011;3047;42.600;23.470;2023-01-08T09:05:03;2.43;;;2.20;;
6037;SDS011;3047;42.600;23.470;2023-01-08T09:07:30;1.90;;;1.80;;
6037;SDS011;3047;42.600;23.470;2023-01-08T09:09:58;2.00;;;1.90;;
6037;SDS011;3047;42.600;23.470;2023-01-08T09:12:25;4.43;;;2.73;;
6037;SDS011;3047;42.600;23.470;2023-01-08T09:14:51;2.37;;;2.23;;
6037;SDS011;3047;42.600;23.470;2023-01-08T09:17:18;3.33;;;2.17;;
6037;SDS011;3047;42.600;23.470;2023-01-08T09:19:46;4.20;;;2.40;;
6037;SDS011;3047;42.600;23.470;2023-01-08T09:22:13;2.37;;;2.27;;
6037;SDS011;3047;42.600;23.470;2023-01-08T09:24:39;1.40;;;1.40;;
6037;SDS011;3047;42.600;23.470;2023-01-08T09:27:07;2.70;;;2.60;;
6037;SDS011;3047;42.600;23.470;2023-01-08T09:29:34;1.40;;;1.30;;
6037;SDS011;3047;42.600;23.470;2023-01-08T09:32:01;2.60;;;2.50;;
6037;SDS011;3047;42.600;23.470;2023-01-08T09:34:31;3.13;;;2.97;;
6037;SDS011;3047;42.600;23.470;2023-01-08T09:36:57;2.90;;;2.70;;
6037;SDS011;3047;42.600;23.470;2023-01-08T09:39:24;1.73;;;1.73;;
6037;SDS011;3047;42.600;23.470;2023-01-08T09:41:51;2.23;;;2.13;;
6037;SDS011;3047;42.600;23.470;2023-01-08T09:44:22;1.23;;;1.23;;
6037;SDS011;3047;42.600;23.470;2023-01-08T09:46:52;2.13;;;2.13;;
6037;SDS011;3047;42.600;23.470;2023-01-08T09:49:21;3.10;;;2.00;;
6037;SDS011;3047;42.600;23.470;2023-01-08T09:51:52;1.50;;;1.50;;
6037;SDS011;3047;42.600;23.470;2023-01-08T09:54:20;2.13;;;2.03;;
6037;SDS011;3047;42.600;23.470;2023-01-08T09:56:51;10.10;;;2.63;;
6037;SDS011;3047;42.600;23.470;2023-01-08T09:59:18;1.47;;;1.47;;
6037;SDS011;3047;42.600;23.470;2023-01-08T10:01:47;9.53;;;2.83;;
6037;SDS011;3047;42.600;23.470;2023-01-08T10:04:14;4.33;;;3.93;;
6037;SDS011;3047;42.600;23.470;2023-01-08T10:06:45;2.53;;;2.40;;
6037;SDS011;3047;42.600;23.470;2023-01-08T10:09:16;3.13;;;2.60;;
6037;SDS011;3047;42.600;23.470;2023-01-08T10:11:46;3.33;;;3.13;;
6037;SDS011;3047;42.600;23.470;2023-01-08T10:14:18;3.57;;;3.00;;
6037;SDS011;3047;42.600;23.470;2023-01-08T10:16:50;1.83;;;1.77;;
6037;SDS011;3047;42.600;23.470;2023-01-08T10:19:20;3.20;;;2.87;;
6037;SDS011;3047;42.600;23.470;2023-01-08T10:21:47;4.33;;;2.33;;
6037;SDS011;3047;42.600;23.470;2023-01-08T10:24:14;1.67;;;1.67;;
6037;SDS011;3047;42.600;23.470;2023-01-08T10:26:41;2.13;;;2.03;;
6037;SDS011;3047;42.600;23.470;2023-01-08T10:29:10;5.00;;;2.00;;
6037;SDS011;3047;42.600;23.470;2023-01-08T10:31:47;2.57;;;2.47;;
6037;SDS011;3047;42.600;23.470;2023-01-08T10:34:26;1.50;;;1.50;;
6037;SDS011;3047;42.600;23.470;2023-01-08T10:36:56;1.67;;;1.67;;
6037;SDS011;3047;42.600;23.470;2023-01-08T10:39:24;6.30;;;1.80;;
6037;SDS011;3047;42.600;23.470;2023-01-08T10:41:54;1.70;;;1.60;;
6037;SDS011;3047;42.600;23.470;2023-01-08T10:44:23;6.83;;;2.57;;
6037;SDS011;3047;42.600;23.470;2023-01-08T10:46:53;2.53;;;2.33;;
6037;SDS011;3047;42.600;23.470;2023-01-08T10:49:26;3.60;;;2.80;;
6037;SDS011;3047;42.600;23.470;2023-01-08T10:51:57;1.90;;;1.90;;
6037;SDS011;3047;42.600;23.470;2023-01-08T10:54:34;2.57;;;2.47;;
6037;SDS011;3047;42.600;23.470;2023-01-08T10:57:02;4.83;;;2.17;;
6037;SDS011;3047;42.600;23.470;2023-01-08T10:59:44;3.30;;;2.97;;
6037;SDS011;3047;42.600;23.470;2023-01-08T11:02:15;2.80;;;2.60;;
6037;SDS011;3047;42.600;23.470;2023-01-08T11:04:50;2.00;;;1.90;;
6037;SDS011;3047;42.600;23.470;2023-01-08T11:07:19;1.80;;;1.80;;
6037;SDS011;3047;42.600;23.470;2023-01-08T11:09:49;1.73;;;1.40;;
6037;SDS011;3047;42.600;23.470;2023-01-08T11:12:25;2.33;;;2.17;;
6037;SDS011;3047;42.600;23.470;2023-01-08T11:14:58;1.10;;;1.10;;
6037;SDS011;3047;42.600;23.470;2023-01-08T11:17:26;6.87;;;2.00;;
6037;SDS011;3047;42.600;23.470;2023-01-08T11:19:54;2.57;;;2.47;;
6037;SDS011;3047;42.600;23.470;2023-01-08T11:22:31;1.73;;;1.73;;
6037;SDS011;3047;42.600;23.470;2023-01-08T11:24:58;3.97;;;3.17;;
6037;SDS011;3047;42.600;23.470;2023-01-08T11:27:25;1.50;;;1.40;;
6037;SDS011;3047;42.600;23.470;2023-01-08T11:29:57;2.27;;;2.07;;
6037;SDS011;3047;42.600;23.470;2023-01-08T11:32:33;5.00;;;2.00;;
6037;SDS011;3047;42.600;23.470;2023-01-08T11:35:09;2.07;;;1.97;;
6037;SDS011;3047;42.600;23.470;2023-01-08T11:37:39;1.23;;;1.23;;
6037;SDS011;3047;42.600;23.470;2023-01-08T11:40:12;2.53;;;2.33;;
6037;SDS011;3047;42.600;23.470;2023-01-08T11:42:46;2.47;;;2.27;;
6037;SDS011;3047;42.600;23.470;2023-01-08T11:45:24;2.03;;;1.83;;
6037;SDS011;3047;42.600;23.470;2023-01-08T11:51:11;1.80;;;1.70;;
6037;SDS011;3047;42.600;23.470;2023-01-08T11:53:51;1.70;;;1.70;;
6037;SDS011;3047;42.600;23.470;2023-01-08T11:56:26;1.70;;;1.60;;
6037;SDS011;3047;42.600;23.470;2023-01-08T11:59:06;2.40;;;1.17;;
6037;SDS011;3047;42.600;23.470;2023-01-08T12:01:42;4.77;;;2.67;;
6037;SDS011;3047;42.600;23.470;2023-01-08T12:04:20;2.77;;;2.53;;
6037;SDS011;3047;42.600;23.470;2023-01-08T12:06:58;2.63;;;1.43;;
6037;SDS011;3047;42.600;23.470;2023-01-08T12:09:35;1.90;;;1.80;;
6037;SDS011;3047;42.600;23.470;2023-01-08T12:12:06;1.97;;;1.87;;
6037;SDS011;3047;42.600;23.470;2023-01-08T12:14:47;7.60;;;3.47;;
6037;SDS011;3047;42.600;23.470;2023-01-08T12:20:25;2.03;;;1.93;;
6037;SDS011;3047;42.600;23.470;2023-01-08T12:22:59;5.27;;;3.50;;
6037;SDS011;3047;42.600;23.470;2023-01-08T12:31:41;5.43;;;3.33;;
6037;SDS011;3047;42.600;23.470;2023-01-08T12:34:20;3.43;;;3.13;;
6037;SDS011;3047;42.600;23.470;2023-01-08T12:37:07;4.70;;;2.47;;
6037;SDS011;3047;42.600;23.470;2023-01-08T12:39:42;5.17;;;2.80;;
6037;SDS011;3047;42.600;23.470;2023-01-08T12:42:13;3.00;;;2.80;;
6037;SDS011;3047;42.600;23.470;2023-01-08T12:44:43;3.20;;;1.80;;
6037;SDS011;3047;42.600;23.470;2023-01-08T12:47:12;2.03;;;2.00;;
6037;SDS011;3047;42.600;23.470;2023-01-08T12:49:45;1.10;;;1.10;;
6037;SDS011;3047;42.600;23.470;2023-01-08T12:52:19;2.30;;;2.20;;
6037;SDS011;3047;42.600;23.470;2023-01-08T12:54:52;1.13;;;1.13;;
6037;SDS011;3047;42.600;23.470;2023-01-08T12:57:24;2.23;;;1.67;;
6037;SDS011;3047;42.600;23.470;2023-01-08T12:59:55;0.80;;;0.80;;
6037;SDS011;3047;42.600;23.470;2023-01-08T13:02:31;1.17;;;1.17;;
6037;SDS011;3047;42.600;23.470;2023-01-08T13:05:12;1.60;;;1.33;;
6037;SDS011;3047;42.600;23.470;2023-01-08T13:07:55;0.80;;;0.80;;
6037;SDS011;3047;42.600;23.470;2023-01-08T13:10:27;2.23;;;1.70;;
6037;SDS011;3047;42.600;23.470;2023-01-08T13:13:00;1.57;;;1.50;;
6037;SDS011;3047;42.600;23.470;2023-01-08T13:15:28;2.43;;;1.10;;
6037;SDS011;3047;42.600;23.470;2023-01-08T13:17:56;4.23;;;2.20;;
6037;SDS011;3047;42.600;23.470;2023-01-08T13:20:26;5.50;;;3.60;;
6037;SDS011;3047;42.600;23.470;2023-01-08T13:22:56;1.40;;;1.37;;
6037;SDS011;3047;42.600;23.470;2023-01-08T13:25:26;2.33;;;2.17;;
6037;SDS011;3047;42.600;23.470;2023-01-08T13:27:55;2.23;;;2.13;;
6037;SDS011;3047;42.600;23.470;2023-01-08T13:30:33;2.13;;;2.03;;
6037;SDS011;3047;42.600;23.470;2023-01-08T13:33:03;1.70;;;1.60;;
6037;SDS011;3047;42.600;23.470;2023-01-08T13:35:50;2.27;;;2.13;;
6037;SDS011;3047;42.600;23.470;2023-01-08T13:38:19;1.33;;;1.33;;
6037;SDS011;3047;42.600;23.470;2023-01-08T13:40:50;1.33;;;1.23;;
6037;SDS011;3047;42.600;23.470;2023-01-08T13:43:21;2.33;;;1.63;;
6037;SDS011;3047;42.600;23.470;2023-01-08T13:45:53;1.90;;;1.87;;
6037;SDS011;3047;42.600;23.470;2023-01-08T13:48:31;4.93;;;2.43;;
6037;SDS011;3047;42.600;23.470;2023-01-08T13:51:00;2.33;;;2.07;;
6037;SDS011;3047;42.600;23.470;2023-01-08T13:53:29;13.03;;;2.30;;
6037;SDS011;3047;42.600;23.470;2023-01-08T13:55:57;1.77;;;1.77;;
6037;SDS011;3047;42.600;23.470;2023-01-08T13:58:27;2.13;;;1.97;;
6037;SDS011;3047;42.600;23.470;2023-01-08T14:00:57;1.10;;;1.10;;
6037;SDS011;3047;42.600;23.470;2023-01-08T14:03:26;2.93;;;1.43;;
6037;SDS011;3047;42.600;23.470;2023-01-08T14:06:03;5.93;;;2.10;;
6037;SDS011;3047;42.600;23.470;2023-01-08T14:08:32;1.73;;;1.63;;
6037;SDS011;3047;42.600;23.470;2023-01-08T14:10:59;2.70;;;2.60;;
6037;SDS011;3047;42.600;23.470;2023-01-08T14:13:29;3.77;;;2.93;;
6037;SDS011;3047;42.600;23.470;2023-01-08T14:16:00;3.47;;;1.60;;
6037;SDS011;3047;42.600;23.470;2023-01-08T14:18:29;4.23;;;2.20;;
6037;SDS011;3047;42.600;23.470;2023-01-08T14:20:56;1.50;;;1.50;;
6037;SDS011;3047;42.600;23.470;2023-01-08T14:23:23;1.63;;;1.63;;
6037;SDS011;3047;42.600;23.470;2023-01-08T14:25:54;1.37;;;1.37;;
6037;SDS011;3047;42.600;23.470;2023-01-08T14:28:22;2.37;;;1.87;;
6037;SDS011;3047;42.600;23.470;2023-01-08T14:30:49;1.37;;;1.37;;
6037;SDS011;3047;42.600;23.470;2023-01-08T14:33:17;1.73;;;1.73;;
6037;SDS011;3047;42.600;23.470;2023-01-08T14:35:47;2.70;;;2.60;;
6037;SDS011;3047;42.600;23.470;2023-01-08T14:38:16;7.53;;;2.33;;
6037;SDS011;3047;42.600;23.470;2023-01-08T14:40:44;2.60;;;1.53;;
6037;SDS011;3047;42.600;23.470;2023-01-08T14:43:17;2.37;;;2.27;;
6037;SDS011;3047;42.600;23.470;2023-01-08T14:45:46;2.93;;;2.73;;
6037;SDS011;3047;42.600;23.470;2023-01-08T14:48:16;0.97;;;0.97;;
6037;SDS011;3047;42.600;23.470;2023-01-08T14:50:53;1.87;;;1.77;;
6037;SDS011;3047;42.600;23.470;2023-01-08T14:53:26;4.33;;;2.87;;
6037;SDS011;3047;42.600;23.470;2023-01-08T14:55:56;3.80;;;3.50;;
6037;SDS011;3047;42.600;23.470;2023-01-08T14:58:25;1.97;;;1.70;;
6037;SDS011;3047;42.600;23.470;2023-01-08T15:00:55;2.97;;;2.77;;
6037;SDS011;3047;42.600;23.470;2023-01-08T15:03:32;9.30;;;4.10;;
6037;SDS011;3047;42.600;23.470;2023-01-08T15:06:00;12.03;;;4.20;;
6037;SDS011;3047;42.600;23.470;2023-01-08T15:08:31;4.93;;;3.60;;
6037;SDS011;3047;42.600;23.470;2023-01-08T15:10:59;3.37;;;3.23;;
6037;SDS011;3047;42.600;23.470;2023-01-08T15:13:30;2.73;;;2.40;;
6037;SDS011;3047;42.600;23.470;2023-01-08T15:16:00;2.77;;;2.67;;
6037;SDS011;3047;42.600;23.470;2023-01-08T15:18:33;2.27;;;2.17;;
6037;SDS011;3047;42.600;23.470;2023-01-08T15:21:06;2.07;;;1.87;;
6037;SDS011;3047;42.600;23.470;2023-01-08T15:23:34;1.07;;;1.07;;
6037;SDS011;3047;42.600;23.470;2023-01-08T15:26:08;2.60;;;2.50;;
6037;SDS011;3047;42.600;23.470;2023-01-08T15:28:37;3.20;;;1.40;;
6037;SDS011;3047;42.600;23.470;2023-01-08T15:31:10;1.13;;;1.13;;